메인 페이지
METAR-TAF:

METAR-TAF

공항 :

안토파가스타, 칠레

위도: 23-26S, 경도: 070-26W, 고도: 135m

현재 날씨관측

예보는 36분 전, 18:00시(UTC)에 발표되었습니다.
북서11kt
온도 16°C
습도 68%
기압 1016 hPa
시정 10km 이상
고도 2000ft 상공 구름 보통
고도 2600ft 상공 흐림

METAR: SCFA 221800Z 32011KT 9999 SCT020 OVC026 16/10 Q1016 NOSIG

시각: 14:36 (18:36 UTC)

예보

예보는 2 시간 6분 전, 16:30시(UTC)에 발표되었습니다.
예보 대상 시간: 22일 18시부터 23일 18시까지 (UTC)
남서10kt
시정 10km 이상
고도 2400ft 상공 구름 많음
전환 중
22일 23시부터 23일 01시까지 (UTC)
남남서7kt
고도 1800ft 상공 흐림
전환 중
23일 04시부터 23일 06시까지 (UTC)
서북서4kt
전환 중
23일 16시부터 일 시까지 (UTC)
남남서12kt
시정: 2318m
고도 2000ft 상공 구름 조금

TAF: SCFA 221630Z 2218/2318 23010KT 9999 BKN024 TX15/2218Z TN12/2306Z BECMG 2223/2301 20007KT OVC018 BECMG 2304/2306 30004KT BECMG 2316/ 2318 21012KT FEW020

4,000개 이상의 공항 관측 자료 및 예보 (METAR 및 TAF 보고).

지도상에서 검색 가능한 기상관측소가 노란 점과 빨간 점으로 표시되어 있습니다.

기상관측소 명을 보려면 표시 위로 마우스를 이동하세요.

날씨 관측과 예보를 보려면 클릭하세요.

지도 변경 : 확대하려면 엑스 표시가 있는 녹색 버튼, 축소하려면 빼기 표시가 있는 녹색 버튼, 다음 페이지의 지도를 보려면 녹색 화살표를 클릭하세요.


METAR-TAF: